Terminal Aerodrome Forecast
Issued by NWS Greer, SC

Current Version | Previous Version | Text Only | Print | Product List | Glossary On
Versions: 1 2 3 4 5 6 7 8 9 10 11 12 13 14 15 16 17 18 19 20 21 22 23 24 25 26 27 28 29 30 31 32 33 34 35 36 37 38 39 40 41 42 43 44
312
FTUS42 KGSP 300523
TAFAVL
TAF
KAVL 300523Z 3006/0106 00000KT P6SM BKN050
     FM300900 34003KT 4SM BR SCT250
      TEMPO 3009/3013 2SM BR SCT003
     FM301300 34003KT P6SM SCT250
     FM301500 15003KT P6SM SCT250
     FM301700 17005KT P6SM VCTS BKN050CB PROB30 3017/3023 4SM -TSRA
      OVC025CB
     FM010100 VRB03KT P6SM SCT060
     FM010500 VRB03KT 5SM BR SCT015=

USA.gov is the U.S. government's official web portal to all federal, state and local government web resources and services.